ZBTJ/TSN METAR and TAF weather

Enter ICAO airport designator
Station Type Date Time Source
ZBTJ METAR 2020/09/21 08:00 UTC NOAA

ZBTJ 210800Z 14004MPS CAVOK 25/14 Q1015 NOSIG


Station Type Date Time Source
ZBTJ Decoded METAR 2020/09/21 08:00 UTC NOAA

Tianjin / Zhangguizhu, China (ZBTJ) 39-11N 117-21E
Sep 21, 2020 - 04:00 AM EDT / 2020.09.21 0800 UTC
Wind: from the SE (140 degrees) at 9 MPH (8 KT):0
Visibility: greater than 7 mile(s):0
Temperature: 77 F (25 C)
Dew Point: 57 F (14 C)
Relative Humidity: 50%
Pressure (altimeter): 29.97 in. Hg (1015 hPa)
ob: ZBTJ 210800Z 14004MPS CAVOK 25/14 Q1015 NOSIG
cycle: 8

Station Type Date Time Source
ZBTJ TAF 2020/09/21 06:03 UTC NOAA

TAF ZBTJ 210307Z 2106/2206 15003MPS 5000 HZ NSC TX28/2107Z TN17/2121Z
TEMPO 2118/2122 3000 -SHRA

Example: see airport list